createdAt,value
2022-09-15T00:01:45.037Z,13.97
2022-09-15T00:06:50.016Z,13.97
2022-09-15T00:11:53.719Z,14.05
2022-09-15T00:16:57.459Z,14.11
2022-09-15T00:22:02.877Z,14.16
2022-09-15T00:27:06.663Z,14.21
2022-09-15T00:32:10.435Z,14.25
2022-09-15T00:37:15.464Z,14.29
2022-09-15T00:42:21.494Z,14.27
2022-09-15T00:47:28.332Z,14.17
2022-09-15T00:52:40.363Z,14.24
2022-09-15T00:57:49.465Z,14.27
2022-09-15T01:02:53.236Z,14.25
2022-09-15T01:08:01.692Z,14.19
2022-09-15T01:13:07.360Z,14.11
2022-09-15T01:18:18.157Z,14.02
2022-09-15T01:23:51.666Z,14.04
2022-09-15T01:29:29.756Z,14.08
2022-09-15T01:34:40.316Z,14.11
2022-09-15T01:39:49.945Z,14.10
2022-09-15T01:44:59.294Z,14.12
2022-09-15T01:50:08.305Z,14.10
2022-09-15T01:55:17.901Z,14.08
2022-09-15T02:00:23.082Z,14.04
2022-09-15T02:05:31.671Z,13.95
2022-09-15T02:10:39.478Z,13.96
2022-09-15T02:15:51.564Z,13.89
2022-09-15T02:21:08.084Z,13.82
2022-09-15T02:26:16.817Z,13.76
2022-09-15T02:31:26.058Z,13.72
2022-09-15T02:36:31.690Z,13.68
2022-09-15T02:41:36.264Z,13.64
2022-09-15T02:46:41.472Z,13.60
2022-09-15T02:51:45.114Z,13.56
2022-09-15T02:56:48.884Z,13.55
2022-09-15T03:01:54.125Z,13.51
2022-09-15T03:06:57.848Z,13.46
2022-09-15T03:12:01.520Z,13.44
2022-09-15T03:17:06.547Z,13.45
2022-09-15T03:22:10.503Z,13.45
2022-09-15T03:27:14.538Z,13.46
2022-09-15T03:32:19.539Z,13.50
2022-09-15T03:37:23.217Z,13.52
2022-09-15T03:42:27.176Z,13.55
2022-09-15T03:47:33.290Z,13.56
2022-09-15T03:52:36.983Z,13.55
2022-09-15T03:57:40.712Z,13.57
2022-09-15T04:02:45.739Z,13.60
2022-09-15T04:07:51.049Z,13.66
2022-09-15T04:12:55.255Z,13.68
2022-09-15T04:18:00.308Z,13.72
2022-09-15T04:23:04.110Z,13.75
2022-09-15T04:28:07.777Z,13.79
2022-09-15T04:33:12.792Z,13.81
2022-09-15T04:38:16.469Z,13.83
2022-09-15T04:43:20.335Z,13.80
2022-09-15T04:48:26.178Z,13.82
2022-09-15T04:53:30.462Z,13.81
2022-09-15T04:58:38.528Z,13.81
2022-09-15T05:03:44.585Z,13.78
2022-09-15T05:08:49.342Z,13.78
2022-09-15T05:13:53.069Z,13.74
2022-09-15T05:19:01.629Z,13.63
2022-09-15T05:24:05.635Z,13.54
2022-09-15T05:29:09.731Z,13.48
2022-09-15T05:34:15.335Z,13.46
2022-09-15T05:39:19.234Z,13.49
2022-09-15T05:44:22.904Z,13.51
2022-09-15T05:49:29.461Z,13.54
2022-09-15T05:54:33.077Z,13.58
2022-09-15T05:59:39.158Z,13.67
2022-09-15T06:04:44.247Z,13.75
2022-09-15T06:09:47.944Z,13.81
2022-09-15T06:14:52.855Z,13.85
2022-09-15T06:19:58.162Z,13.92
2022-09-15T06:25:01.941Z,13.98
2022-09-15T06:30:06.562Z,13.99
2022-09-15T06:35:11.735Z,14.03
2022-09-15T06:40:15.631Z,13.97
2022-09-15T06:45:19.674Z,14.09
2022-09-15T06:50:24.896Z,14.21
2022-09-15T06:55:28.571Z,14.21
2022-09-15T07:00:32.453Z,14.31
2022-09-15T07:05:37.452Z,14.37
2022-09-15T07:10:44.804Z,14.46
2022-09-15T07:15:53.269Z,14.52
2022-09-15T07:21:01.962Z,14.59
2022-09-15T07:26:10.776Z,14.59
2022-09-15T07:31:16.482Z,14.77
2022-09-15T07:36:21.686Z,14.93
2022-09-15T07:41:27.131Z,15.07
2022-09-15T07:46:33.114Z,15.19
2022-09-15T07:51:38.259Z,15.22
2022-09-15T07:56:41.931Z,15.21
2022-09-15T08:01:45.652Z,15.27
2022-09-15T08:06:52.098Z,15.29
2022-09-15T08:11:55.879Z,15.33
2022-09-15T08:17:01.061Z,15.43
2022-09-15T08:22:06.132Z,15.52
2022-09-15T08:27:10.778Z,15.56
2022-09-15T08:32:14.912Z,15.62
2022-09-15T08:37:20.046Z,15.57
2022-09-15T08:42:26.869Z,15.77
2022-09-15T08:47:35.086Z,15.92
2022-09-15T08:52:43.812Z,16.06
2022-09-15T08:57:47.629Z,16.14
2022-09-15T09:03:05.259Z,16.14
2022-09-15T09:08:27.585Z,16.26
2022-09-15T09:13:39.900Z,16.34
2022-09-15T09:19:09.440Z,16.53
2022-09-15T09:24:17.700Z,16.67
2022-09-15T09:29:31.831Z,16.74
2022-09-15T09:34:42.883Z,16.68
2022-09-15T09:39:49.045Z,16.61
2022-09-15T09:44:52.919Z,16.45
2022-09-15T09:49:56.845Z,16.25
2022-09-15T09:55:03.486Z,16.10
2022-09-15T10:00:30.516Z,15.92
2022-09-15T10:05:34.215Z,15.89
2022-09-15T10:10:39.648Z,16.00
2022-09-15T10:15:44.211Z,16.42
2022-09-15T10:20:51.238Z,16.99
2022-09-15T10:26:00.182Z,17.58
2022-09-15T10:31:06.959Z,17.68
2022-09-15T10:36:16.101Z,17.65
2022-09-15T10:41:27.037Z,17.61
2022-09-15T10:46:41.117Z,17.46
2022-09-15T10:51:54.842Z,17.20
2022-09-15T10:57:07.132Z,17.30
2022-09-15T11:02:28.947Z,17.75
2022-09-15T11:07:38.562Z,18.22
2022-09-15T11:12:57.512Z,18.72
2022-09-15T11:18:16.261Z,19.00
2022-09-15T11:23:25.578Z,19.10
2022-09-15T11:28:38.956Z,19.19
2022-09-15T11:33:49.053Z,19.28
2022-09-15T11:38:57.619Z,19.50
2022-09-15T11:44:16.195Z,19.83
2022-09-15T11:49:24.387Z,19.69
2022-09-15T11:54:36.934Z,19.66
2022-09-15T11:59:51.314Z,19.77
2022-09-15T12:05:07.885Z,20.03
2022-09-15T12:10:18.974Z,20.20
2022-09-15T12:15:27.589Z,20.91
2022-09-15T12:20:37.982Z,21.34
2022-09-15T12:25:51.341Z,21.70
2022-09-15T12:31:16.191Z,21.38
2022-09-15T12:36:41.254Z,21.41
2022-09-15T12:41:48.782Z,22.43
2022-09-15T12:46:56.992Z,23.13
2022-09-15T12:52:02.666Z,24.52
2022-09-15T12:57:08.183Z,24.35
2022-09-15T13:02:44.519Z,24.07
2022-09-15T13:07:57.143Z,24.28
2022-09-15T13:13:11.810Z,24.09
2022-09-15T13:18:18.057Z,23.28
2022-09-15T13:23:25.719Z,22.92
2022-09-15T13:28:29.718Z,22.38
2022-09-15T13:39:41.357Z,21.59
2022-09-15T13:45:08.843Z,21.17
2022-09-15T13:50:18.249Z,20.95
2022-09-15T13:55:27.957Z,20.78
2022-09-15T14:00:35.311Z,20.46
2022-09-15T14:05:40.712Z,20.29
2022-09-15T14:10:48.116Z,20.15
2022-09-15T14:15:59.330Z,20.01
2022-09-15T14:21:06.318Z,19.55
2022-09-15T14:26:14.833Z,19.85
2022-09-15T14:31:27.514Z,19.71
2022-09-15T14:36:34.207Z,19.46
2022-09-15T14:41:38.810Z,19.36
2022-09-15T14:46:42.495Z,19.29
2022-09-15T14:51:51.084Z,19.16
2022-09-15T14:56:59.368Z,19.14
2022-09-15T15:02:13.228Z,19.08
2022-09-15T15:07:23.623Z,18.71
2022-09-15T15:12:33.129Z,18.53
2022-09-15T15:17:39.500Z,18.31
2022-09-15T15:22:46.702Z,18.19
2022-09-15T15:27:53.317Z,18.19
2022-09-15T15:32:58.863Z,18.25
2022-09-15T15:38:08.402Z,18.19
2022-09-15T15:43:23.427Z,18.11
2022-09-15T15:48:28.382Z,18.32
2022-09-15T15:53:34.271Z,18.32
2022-09-15T15:58:38.030Z,18.25
2022-09-15T16:03:41.762Z,18.44
2022-09-15T16:08:47.463Z,18.58
2022-09-15T16:13:51.312Z,18.42
2022-09-15T16:18:55.206Z,18.13
2022-09-15T16:24:00.262Z,17.96
2022-09-15T16:29:04.078Z,17.66
2022-09-15T16:34:09.822Z,17.48
2022-09-15T16:39:14.886Z,17.35
2022-09-15T16:44:20.361Z,17.40
2022-09-15T16:49:24.352Z,17.17
2022-09-15T16:54:29.418Z,17.25
2022-09-15T16:59:33.220Z,17.24
2022-09-15T17:04:36.956Z,17.15
2022-09-15T17:09:47.862Z,17.09
2022-09-15T17:14:51.577Z,17.05
2022-09-15T17:19:55.260Z,16.96
2022-09-15T17:25:00.491Z,16.90
2022-09-15T17:30:04.629Z,16.94
2022-09-15T17:35:16.836Z,16.87
2022-09-15T17:40:22.298Z,16.84
2022-09-15T17:45:28.201Z,16.75
2022-09-15T17:50:35.310Z,16.71
2022-09-15T17:55:40.385Z,16.63
2022-09-15T18:00:45.325Z,16.51
2022-09-15T18:05:49.705Z,16.54
2022-09-15T18:10:55.668Z,16.53
2022-09-15T18:16:04.029Z,16.53
2022-09-15T18:21:10.035Z,16.52
2022-09-15T18:26:15.215Z,16.43
2022-09-15T18:31:18.992Z,16.32
2022-09-15T18:36:22.873Z,16.19
2022-09-15T18:41:28.573Z,16.07
2022-09-15T18:46:37.093Z,15.87
2022-09-15T18:51:51.638Z,15.75
2022-09-15T18:56:57.289Z,15.76
2022-09-15T19:02:02.078Z,15.71
2022-09-15T19:07:06.421Z,15.64
2022-09-15T19:12:11.946Z,15.59
2022-09-15T19:17:16.239Z,15.50
2022-09-15T19:22:20.085Z,15.39
2022-09-15T19:27:25.695Z,15.35
2022-09-15T19:32:29.767Z,15.26
2022-09-15T19:37:37.321Z,15.17
2022-09-15T19:42:44.014Z,15.03
2022-09-15T19:47:48.110Z,14.85
2022-09-15T19:52:54.223Z,14.70
2022-09-15T19:58:02.046Z,14.55
2022-09-15T20:03:05.819Z,14.49
2022-09-15T20:08:09.552Z,14.51
2022-09-15T20:13:15.946Z,14.45
2022-09-15T20:18:20.061Z,14.52
2022-09-15T20:23:24.016Z,14.50
2022-09-15T20:28:30.523Z,14.48
2022-09-15T20:33:36.198Z,14.46
2022-09-15T20:38:41.237Z,14.40
2022-09-15T20:43:47.210Z,14.42
2022-09-15T20:48:51.515Z,14.41
2022-09-15T20:53:56.882Z,14.43
2022-09-15T20:59:02.095Z,14.49
2022-09-15T21:04:06.407Z,14.47
2022-09-15T21:09:10.079Z,14.44
2022-09-15T21:14:15.531Z,14.42
2022-09-15T21:19:19.215Z,14.37
2022-09-15T21:24:22.931Z,14.24
2022-09-15T21:29:28.960Z,14.22
2022-09-15T21:34:32.831Z,14.20
2022-09-15T21:39:36.508Z,14.14
2022-09-15T21:44:41.854Z,13.97
2022-09-15T21:49:45.646Z,13.90
2022-09-15T21:54:49.270Z,13.81
2022-09-15T21:59:54.409Z,13.78
2022-09-15T22:04:59.649Z,13.64
2022-09-15T22:10:03.419Z,13.54
2022-09-15T22:15:09.522Z,13.49
2022-09-15T22:20:13.271Z,13.44
2022-09-15T22:25:21.664Z,13.40
2022-09-15T22:30:27.010Z,13.37
2022-09-15T22:35:31.483Z,13.24
2022-09-15T22:40:35.172Z,13.18
2022-09-15T22:45:40.251Z,13.05
2022-09-15T22:50:45.308Z,13.00
2022-09-15T22:55:49.117Z,12.97
2022-09-15T23:00:54.334Z,13.01
2022-09-15T23:05:59.083Z,13.06
2022-09-15T23:11:04.625Z,12.91
2022-09-15T23:16:10.374Z,13.10
2022-09-15T23:21:14.487Z,13.12
2022-09-15T23:26:20.124Z,13.17
2022-09-15T23:31:25.353Z,13.11
2022-09-15T23:36:29.103Z,13.18
2022-09-15T23:41:32.774Z,13.09
2022-09-15T23:46:37.859Z,13.17
2022-09-15T23:51:41.630Z,13.23
2022-09-15T23:56:45.452Z,13.22
